sensor_id;sensor_type;location;lat;lon;timestamp;P1;durP1;ratioP1;P2;durP2;ratioP2
65717;SDS011;52445;52.466;-1.016;2023-02-15T00:01:22;44.75;;;18.55;;
65717;SDS011;52445;52.466;-1.016;2023-02-15T00:03:49;54.95;;;21.63;;
65717;SDS011;52445;52.466;-1.016;2023-02-15T00:06:16;53.30;;;19.27;;
65717;SDS011;52445;52.466;-1.016;2023-02-15T00:08:43;45.50;;;18.10;;
65717;SDS011;52445;52.466;-1.016;2023-02-15T00:11:11;48.10;;;19.63;;
65717;SDS011;52445;52.466;-1.016;2023-02-15T00:13:40;51.53;;;19.92;;
65717;SDS011;52445;52.466;-1.016;2023-02-15T00:16:09;44.38;;;17.83;;
65717;SDS011;52445;52.466;-1.016;2023-02-15T00:18:38;54.05;;;20.10;;
65717;SDS011;52445;52.466;-1.016;2023-02-15T00:21:06;52.08;;;18.88;;
65717;SDS011;52445;52.466;-1.016;2023-02-15T00:23:34;57.03;;;19.20;;
65717;SDS011;52445;52.466;-1.016;2023-02-15T00:26:04;48.67;;;19.50;;
65717;SDS011;52445;52.466;-1.016;2023-02-15T00:28:40;54.63;;;23.02;;
65717;SDS011;52445;52.466;-1.016;2023-02-15T00:31:07;50.67;;;20.58;;
65717;SDS011;52445;52.466;-1.016;2023-02-15T00:33:37;47.80;;;21.63;;
65717;SDS011;52445;52.466;-1.016;2023-02-15T00:36:06;49.80;;;21.52;;
65717;SDS011;52445;52.466;-1.016;2023-02-15T00:38:35;55.22;;;22.25;;
65717;SDS011;52445;52.466;-1.016;2023-02-15T00:41:03;55.00;;;21.50;;
65717;SDS011;52445;52.466;-1.016;2023-02-15T00:43:32;51.47;;;21.20;;
65717;SDS011;52445;52.466;-1.016;2023-02-15T00:46:00;49.35;;;19.65;;
65717;SDS011;52445;52.466;-1.016;2023-02-15T00:48:27;53.83;;;20.95;;
65717;SDS011;52445;52.466;-1.016;2023-02-15T00:50:55;53.08;;;21.08;;
65717;SDS011;52445;52.466;-1.016;2023-02-15T00:53:24;52.38;;;20.65;;
65717;SDS011;52445;52.466;-1.016;2023-02-15T00:55:52;56.63;;;23.65;;
65717;SDS011;52445;52.466;-1.016;2023-02-15T00:58:19;52.63;;;22.13;;
65717;SDS011;52445;52.466;-1.016;2023-02-15T01:00:46;62.50;;;23.00;;
65717;SDS011;52445;52.466;-1.016;2023-02-15T01:03:14;52.85;;;20.30;;
65717;SDS011;52445;52.466;-1.016;2023-02-15T01:05:42;55.25;;;21.55;;
65717;SDS011;52445;52.466;-1.016;2023-02-15T01:08:08;57.28;;;19.90;;
65717;SDS011;52445;52.466;-1.016;2023-02-15T01:10:35;51.47;;;21.42;;
65717;SDS011;52445;52.466;-1.016;2023-02-15T01:13:02;52.42;;;20.52;;
65717;SDS011;52445;52.466;-1.016;2023-02-15T01:15:29;53.75;;;21.00;;
65717;SDS011;52445;52.466;-1.016;2023-02-15T01:17:55;56.35;;;22.50;;
65717;SDS011;52445;52.466;-1.016;2023-02-15T01:20:24;48.58;;;19.73;;
65717;SDS011;52445;52.466;-1.016;2023-02-15T01:22:52;49.58;;;20.13;;
65717;SDS011;52445;52.466;-1.016;2023-02-15T01:25:20;53.83;;;20.25;;
65717;SDS011;52445;52.466;-1.016;2023-02-15T01:27:49;45.35;;;19.75;;
65717;SDS011;52445;52.466;-1.016;2023-02-15T01:30:16;52.45;;;19.33;;
65717;SDS011;52445;52.466;-1.016;2023-02-15T01:32:43;54.40;;;20.17;;
65717;SDS011;52445;52.466;-1.016;2023-02-15T01:35:10;52.00;;;19.27;;
65717;SDS011;52445;52.466;-1.016;2023-02-15T01:37:37;55.42;;;20.10;;
65717;SDS011;52445;52.466;-1.016;2023-02-15T01:40:05;49.67;;;18.88;;
65717;SDS011;52445;52.466;-1.016;2023-02-15T01:42:34;49.42;;;19.42;;
65717;SDS011;52445;52.466;-1.016;2023-02-15T01:45:02;47.08;;;19.02;;
65717;SDS011;52445;52.466;-1.016;2023-02-15T01:47:40;46.47;;;18.98;;
65717;SDS011;52445;52.466;-1.016;2023-02-15T01:50:11;55.28;;;20.10;;
65717;SDS011;52445;52.466;-1.016;2023-02-15T01:52:59;46.08;;;20.95;;
65717;SDS011;52445;52.466;-1.016;2023-02-15T01:55:34;50.35;;;20.52;;
65717;SDS011;52445;52.466;-1.016;2023-02-15T01:58:05;50.13;;;20.85;;
65717;SDS011;52445;52.466;-1.016;2023-02-15T02:00:33;54.72;;;21.55;;
65717;SDS011;52445;52.466;-1.016;2023-02-15T02:03:01;47.67;;;19.38;;
65717;SDS011;52445;52.466;-1.016;2023-02-15T02:05:29;53.35;;;18.95;;
65717;SDS011;52445;52.466;-1.016;2023-02-15T02:07:57;48.67;;;19.73;;
65717;SDS011;52445;52.466;-1.016;2023-02-15T02:10:26;51.53;;;18.05;;
65717;SDS011;52445;52.466;-1.016;2023-02-15T02:12:56;53.20;;;21.70;;
65717;SDS011;52445;52.466;-1.016;2023-02-15T02:15:28;51.38;;;21.48;;
65717;SDS011;52445;52.466;-1.016;2023-02-15T02:29:33;49.17;;;19.33;;
65717;SDS011;52445;52.466;-1.016;2023-02-15T02:40:16;51.35;;;20.52;;
65717;SDS011;52445;52.466;-1.016;2023-02-15T02:42:53;44.65;;;18.08;;
65717;SDS011;52445;52.466;-1.016;2023-02-15T02:45:28;56.15;;;21.48;;
65717;SDS011;52445;52.466;-1.016;2023-02-15T02:48:03;47.22;;;19.17;;
65717;SDS011;52445;52.466;-1.016;2023-02-15T02:50:34;48.75;;;19.25;;
65717;SDS011;52445;52.466;-1.016;2023-02-15T02:53:01;48.78;;;18.67;;
65717;SDS011;52445;52.466;-1.016;2023-02-15T02:55:30;48.60;;;20.63;;
65717;SDS011;52445;52.466;-1.016;2023-02-15T02:58:04;51.03;;;21.65;;
65717;SDS011;52445;52.466;-1.016;2023-02-15T03:00:44;81.40;;;29.73;;
65717;SDS011;52445;52.466;-1.016;2023-02-15T03:06:04;57.25;;;20.75;;
65717;SDS011;52445;52.466;-1.016;2023-02-15T03:08:40;55.70;;;19.92;;
65717;SDS011;52445;52.466;-1.016;2023-02-15T03:11:10;53.20;;;18.45;;
65717;SDS011;52445;52.466;-1.016;2023-02-15T03:13:37;54.30;;;19.95;;
65717;SDS011;52445;52.466;-1.016;2023-02-15T03:16:05;48.95;;;18.45;;
65717;SDS011;52445;52.466;-1.016;2023-02-15T03:19:00;51.17;;;18.60;;
65717;SDS011;52445;52.466;-1.016;2023-02-15T03:21:48;52.55;;;19.30;;
65717;SDS011;52445;52.466;-1.016;2023-02-15T03:24:32;41.40;;;15.70;;
65717;SDS011;52445;52.466;-1.016;2023-02-15T03:27:11;50.65;;;20.55;;
65717;SDS011;52445;52.466;-1.016;2023-02-15T03:29:48;56.40;;;22.25;;
65717;SDS011;52445;52.466;-1.016;2023-02-15T03:32:19;51.65;;;20.52;;
65717;SDS011;52445;52.466;-1.016;2023-02-15T03:34:48;52.25;;;20.88;;
65717;SDS011;52445;52.466;-1.016;2023-02-15T03:40:03;42.97;;;16.08;;
65717;SDS011;52445;52.466;-1.016;2023-02-15T03:43:00;50.55;;;17.77;;
65717;SDS011;52445;52.466;-1.016;2023-02-15T03:45:35;43.10;;;16.60;;
65717;SDS011;52445;52.466;-1.016;2023-02-15T03:48:04;51.90;;;17.60;;
65717;SDS011;52445;52.466;-1.016;2023-02-15T03:50:34;44.30;;;16.55;;
65717;SDS011;52445;52.466;-1.016;2023-02-15T03:53:24;46.08;;;17.65;;
65717;SDS011;52445;52.466;-1.016;2023-02-15T03:55:53;49.78;;;17.70;;
65717;SDS011;52445;52.466;-1.016;2023-02-15T03:58:21;40.33;;;16.52;;
65717;SDS011;52445;52.466;-1.016;2023-02-15T04:01:13;44.70;;;17.48;;
65717;SDS011;52445;52.466;-1.016;2023-02-15T04:04:09;44.40;;;16.95;;
65717;SDS011;52445;52.466;-1.016;2023-02-15T04:06:44;40.30;;;14.90;;
65717;SDS011;52445;52.466;-1.016;2023-02-15T04:09:11;40.47;;;15.90;;
65717;SDS011;52445;52.466;-1.016;2023-02-15T04:11:58;45.10;;;16.27;;
65717;SDS011;52445;52.466;-1.016;2023-02-15T04:14:25;45.03;;;16.27;;
65717;SDS011;52445;52.466;-1.016;2023-02-15T04:17:12;44.65;;;17.17;;
65717;SDS011;52445;52.466;-1.016;2023-02-15T04:19:38;49.80;;;16.83;;
65717;SDS011;52445;52.466;-1.016;2023-02-15T04:22:25;40.15;;;15.35;;
65717;SDS011;52445;52.466;-1.016;2023-02-15T04:25:11;42.85;;;16.23;;
65717;SDS011;52445;52.466;-1.016;2023-02-15T04:27:40;47.15;;;16.67;;
65717;SDS011;52445;52.466;-1.016;2023-02-15T04:30:10;43.47;;;17.55;;
65717;SDS011;52445;52.466;-1.016;2023-02-15T04:32:38;48.30;;;18.45;;
65717;SDS011;52445;52.466;-1.016;2023-02-15T04:35:05;45.63;;;17.70;;
65717;SDS011;52445;52.466;-1.016;2023-02-15T04:37:32;43.58;;;16.38;;
65717;SDS011;52445;52.466;-1.016;2023-02-15T04:39:59;46.38;;;17.08;;
65717;SDS011;52445;52.466;-1.016;2023-02-15T04:42:26;42.38;;;17.70;;
65717;SDS011;52445;52.466;-1.016;2023-02-15T04:44:53;47.70;;;16.33;;
65717;SDS011;52445;52.466;-1.016;2023-02-15T04:47:20;48.22;;;18.80;;
65717;SDS011;52445;52.466;-1.016;2023-02-15T04:49:46;53.80;;;18.67;;
65717;SDS011;52445;52.466;-1.016;2023-02-15T04:52:13;50.35;;;18.85;;
65717;SDS011;52445;52.466;-1.016;2023-02-15T04:54:40;47.95;;;17.55;;
65717;SDS011;52445;52.466;-1.016;2023-02-15T04:57:07;51.28;;;18.83;;
65717;SDS011;52445;52.466;-1.016;2023-02-15T04:59:33;51.45;;;19.25;;
65717;SDS011;52445;52.466;-1.016;2023-02-15T05:02:00;49.30;;;17.30;;
65717;SDS011;52445;52.466;-1.016;2023-02-15T05:04:26;47.50;;;17.73;;
65717;SDS011;52445;52.466;-1.016;2023-02-15T05:06:53;49.47;;;17.95;;
65717;SDS011;52445;52.466;-1.016;2023-02-15T05:09:20;48.70;;;18.55;;
65717;SDS011;52445;52.466;-1.016;2023-02-15T05:11:46;46.38;;;17.38;;
65717;SDS011;52445;52.466;-1.016;2023-02-15T05:14:13;50.28;;;17.77;;
65717;SDS011;52445;52.466;-1.016;2023-02-15T05:16:40;57.28;;;20.45;;
65717;SDS011;52445;52.466;-1.016;2023-02-15T05:19:06;55.58;;;20.75;;
65717;SDS011;52445;52.466;-1.016;2023-02-15T05:21:33;49.53;;;19.58;;
65717;SDS011;52445;52.466;-1.016;2023-02-15T05:24:00;54.53;;;18.08;;
65717;SDS011;52445;52.466;-1.016;2023-02-15T05:26:26;56.17;;;18.67;;
65717;SDS011;52445;52.466;-1.016;2023-02-15T05:29:13;59.33;;;19.52;;
65717;SDS011;52445;52.466;-1.016;2023-02-15T05:31:39;51.95;;;18.08;;
65717;SDS011;52445;52.466;-1.016;2023-02-15T05:34:07;56.95;;;19.23;;
65717;SDS011;52445;52.466;-1.016;2023-02-15T05:36:33;53.13;;;19.15;;
65717;SDS011;52445;52.466;-1.016;2023-02-15T05:39:00;58.50;;;19.38;;
65717;SDS011;52445;52.466;-1.016;2023-02-15T05:41:26;50.40;;;19.67;;
65717;SDS011;52445;52.466;-1.016;2023-02-15T05:43:54;57.67;;;18.88;;
65717;SDS011;52445;52.466;-1.016;2023-02-15T05:46:22;60.63;;;19.23;;
65717;SDS011;52445;52.466;-1.016;2023-02-15T05:48:48;50.08;;;18.35;;
65717;SDS011;52445;52.466;-1.016;2023-02-15T05:51:15;55.13;;;18.63;;
65717;SDS011;52445;52.466;-1.016;2023-02-15T05:53:43;52.00;;;17.50;;
65717;SDS011;52445;52.466;-1.016;2023-02-15T05:56:10;56.00;;;18.60;;
65717;SDS011;52445;52.466;-1.016;2023-02-15T05:58:38;55.42;;;20.48;;
65717;SDS011;52445;52.466;-1.016;2023-02-15T06:01:07;59.88;;;20.50;;
65717;SDS011;52445;52.466;-1.016;2023-02-15T06:03:44;76.55;;;28.75;;
65717;SDS011;52445;52.466;-1.016;2023-02-15T06:06:11;63.22;;;22.98;;
65717;SDS011;52445;52.466;-1.016;2023-02-15T06:08:38;60.97;;;24.00;;
65717;SDS011;52445;52.466;-1.016;2023-02-15T06:11:05;60.50;;;20.73;;
65717;SDS011;52445;52.466;-1.016;2023-02-15T06:13:32;49.92;;;19.27;;
65717;SDS011;52445;52.466;-1.016;2023-02-15T06:16:03;58.25;;;19.50;;
65717;SDS011;52445;52.466;-1.016;2023-02-15T06:18:30;52.78;;;19.73;;
65717;SDS011;52445;52.466;-1.016;2023-02-15T06:20:57;53.85;;;18.80;;
65717;SDS011;52445;52.466;-1.016;2023-02-15T06:23:23;66.80;;;22.00;;
65717;SDS011;52445;52.466;-1.016;2023-02-15T06:25:50;53.72;;;19.67;;
65717;SDS011;52445;52.466;-1.016;2023-02-15T06:28:16;42.55;;;15.57;;
65717;SDS011;52445;52.466;-1.016;2023-02-15T06:30:43;51.88;;;19.00;;
65717;SDS011;52445;52.466;-1.016;2023-02-15T06:33:10;52.80;;;18.13;;
65717;SDS011;52445;52.466;-1.016;2023-02-15T06:35:36;61.28;;;19.40;;
65717;SDS011;52445;52.466;-1.016;2023-02-15T06:38:03;54.85;;;21.77;;
65717;SDS011;52445;52.466;-1.016;2023-02-15T06:40:29;58.00;;;23.15;;
65717;SDS011;52445;52.466;-1.016;2023-02-15T06:42:56;46.90;;;19.83;;
65717;SDS011;52445;52.466;-1.016;2023-02-15T06:45:22;57.10;;;21.05;;
65717;SDS011;52445;52.466;-1.016;2023-02-15T06:47:49;58.40;;;18.60;;
65717;SDS011;52445;52.466;-1.016;2023-02-15T06:50:16;53.55;;;20.30;;
65717;SDS011;52445;52.466;-1.016;2023-02-15T06:52:42;54.28;;;19.23;;
65717;SDS011;52445;52.466;-1.016;2023-02-15T06:55:09;56.78;;;21.35;;
65717;SDS011;52445;52.466;-1.016;2023-02-15T06:57:35;58.78;;;21.10;;
65717;SDS011;52445;52.466;-1.016;2023-02-15T07:00:03;63.15;;;21.05;;
65717;SDS011;52445;52.466;-1.016;2023-02-15T07:02:31;55.15;;;23.25;;
65717;SDS011;52445;52.466;-1.016;2023-02-15T07:04:59;59.50;;;19.73;;
65717;SDS011;52445;52.466;-1.016;2023-02-15T07:07:26;56.50;;;23.65;;
65717;SDS011;52445;52.466;-1.016;2023-02-15T07:09:52;52.97;;;20.60;;
65717;SDS011;52445;52.466;-1.016;2023-02-15T07:12:19;57.38;;;19.70;;
65717;SDS011;52445;52.466;-1.016;2023-02-15T07:15:05;56.40;;;19.20;;
65717;SDS011;52445;52.466;-1.016;2023-02-15T07:17:33;55.30;;;19.45;;
65717;SDS011;52445;52.466;-1.016;2023-02-15T07:20:03;54.80;;;20.92;;
65717;SDS011;52445;52.466;-1.016;2023-02-15T07:22:31;55.60;;;18.65;;
65717;SDS011;52445;52.466;-1.016;2023-02-15T07:25:00;58.42;;;20.42;;
65717;SDS011;52445;52.466;-1.016;2023-02-15T07:27:27;57.60;;;21.75;;
65717;SDS011;52445;52.466;-1.016;2023-02-15T07:29:53;60.58;;;24.20;;
65717;SDS011;52445;52.466;-1.016;2023-02-15T07:32:20;59.00;;;20.42;;
65717;SDS011;52445;52.466;-1.016;2023-02-15T07:34:46;58.38;;;19.10;;
65717;SDS011;52445;52.466;-1.016;2023-02-15T07:37:13;45.47;;;18.27;;
65717;SDS011;52445;52.466;-1.016;2023-02-15T07:39:40;50.42;;;18.98;;
65717;SDS011;52445;52.466;-1.016;2023-02-15T07:42:06;54.53;;;19.52;;
65717;SDS011;52445;52.466;-1.016;2023-02-15T07:44:33;50.20;;;19.38;;
65717;SDS011;52445;52.466;-1.016;2023-02-15T07:46:59;58.90;;;22.25;;
65717;SDS011;52445;52.466;-1.016;2023-02-15T07:49:26;59.83;;;20.55;;
65717;SDS011;52445;52.466;-1.016;2023-02-15T07:51:53;56.67;;;19.98;;
65717;SDS011;52445;52.466;-1.016;2023-02-15T07:54:19;54.10;;;19.08;;
65717;SDS011;52445;52.466;-1.016;2023-02-15T07:56:46;51.33;;;19.90;;
65717;SDS011;52445;52.466;-1.016;2023-02-15T07:59:13;56.03;;;19.48;;
65717;SDS011;52445;52.466;-1.016;2023-02-15T08:01:39;50.30;;;18.33;;
65717;SDS011;52445;52.466;-1.016;2023-02-15T08:04:06;54.22;;;19.27;;
65717;SDS011;52445;52.466;-1.016;2023-02-15T08:06:35;56.22;;;22.65;;
65717;SDS011;52445;52.466;-1.016;2023-02-15T08:09:03;64.85;;;22.30;;
65717;SDS011;52445;52.466;-1.016;2023-02-15T08:11:33;64.43;;;21.45;;
65717;SDS011;52445;52.466;-1.016;2023-02-15T08:16:47;57.55;;;22.15;;
65717;SDS011;52445;52.466;-1.016;2023-02-15T08:19:17;59.63;;;21.52;;
65717;SDS011;52445;52.466;-1.016;2023-02-15T08:21:47;59.92;;;21.50;;
65717;SDS011;52445;52.466;-1.016;2023-02-15T08:24:17;67.80;;;22.10;;
65717;SDS011;52445;52.466;-1.016;2023-02-15T08:26:46;60.22;;;21.55;;
65717;SDS011;52445;52.466;-1.016;2023-02-15T08:29:14;71.80;;;21.58;;
65717;SDS011;52445;52.466;-1.016;2023-02-15T08:31:42;61.70;;;22.20;;
65717;SDS011;52445;52.466;-1.016;2023-02-15T08:34:09;71.18;;;24.33;;
65717;SDS011;52445;52.466;-1.016;2023-02-15T08:36:37;66.57;;;22.65;;
65717;SDS011;52445;52.466;-1.016;2023-02-15T08:39:04;74.82;;;23.55;;
65717;SDS011;52445;52.466;-1.016;2023-02-15T08:41:34;66.88;;;24.60;;
65717;SDS011;52445;52.466;-1.016;2023-02-15T08:44:04;63.25;;;22.50;;
65717;SDS011;52445;52.466;-1.016;2023-02-15T08:46:33;63.35;;;23.20;;
65717;SDS011;52445;52.466;-1.016;2023-02-15T08:49:02;70.90;;;24.63;;
65717;SDS011;52445;52.466;-1.016;2023-02-15T08:51:31;69.22;;;25.25;;
65717;SDS011;52445;52.466;-1.016;2023-02-15T08:54:01;77.03;;;27.10;;
65717;SDS011;52445;52.466;-1.016;2023-02-15T08:59:00;63.67;;;22.63;;
65717;SDS011;52445;52.466;-1.016;2023-02-15T09:01:28;61.47;;;23.65;;
65717;SDS011;52445;52.466;-1.016;2023-02-15T09:03:57;57.40;;;22.80;;
65717;SDS011;52445;52.466;-1.016;2023-02-15T09:06:25;55.80;;;22.80;;
65717;SDS011;52445;52.466;-1.016;2023-02-15T09:08:53;53.97;;;21.67;;
65717;SDS011;52445;52.466;-1.016;2023-02-15T09:11:21;51.35;;;21.70;;
65717;SDS011;52445;52.466;-1.016;2023-02-15T09:13:52;49.75;;;20.13;;
65717;SDS011;52445;52.466;-1.016;2023-02-15T09:18:47;53.00;;;22.58;;
65717;SDS011;52445;52.466;-1.016;2023-02-15T09:21:15;49.00;;;20.50;;
65717;SDS011;52445;52.466;-1.016;2023-02-15T09:23:44;44.40;;;19.27;;
65717;SDS011;52445;52.466;-1.016;2023-02-15T09:26:13;48.47;;;20.38;;
65717;SDS011;52445;52.466;-1.016;2023-02-15T09:28:43;51.72;;;20.20;;
65717;SDS011;52445;52.466;-1.016;2023-02-15T09:31:11;43.75;;;20.77;;
65717;SDS011;52445;52.466;-1.016;2023-02-15T09:33:50;42.90;;;19.58;;
65717;SDS011;52445;52.466;-1.016;2023-02-15T09:36:19;41.85;;;19.27;;
65717;SDS011;52445;52.466;-1.016;2023-02-15T09:38:56;48.72;;;20.77;;
65717;SDS011;52445;52.466;-1.016;2023-02-15T09:41:33;49.13;;;20.58;;
65717;SDS011;52445;52.466;-1.016;2023-02-15T10:08:34;37.55;;;17.35;;
65717;SDS011;52445;52.466;-1.016;2023-02-15T10:11:17;42.28;;;19.25;;
65717;SDS011;52445;52.466;-1.016;2023-02-15T10:14:01;43.67;;;21.17;;
65717;SDS011;52445;52.466;-1.016;2023-02-15T10:31:48;36.80;;;18.98;;
65717;SDS011;52445;52.466;-1.016;2023-02-15T10:34:18;30.27;;;14.82;;
65717;SDS011;52445;52.466;-1.016;2023-02-15T10:45:30;33.17;;;16.88;;
65717;SDS011;52445;52.466;-1.016;2023-02-15T10:51:16;35.72;;;16.38;;
65717;SDS011;52445;52.466;-1.016;2023-02-15T10:54:02;31.38;;;15.57;;
65717;SDS011;52445;52.466;-1.016;2023-02-15T10:56:43;32.60;;;15.63;;
65717;SDS011;52445;52.466;-1.016;2023-02-15T11:02:25;30.63;;;16.52;;
65717;SDS011;52445;52.466;-1.016;2023-02-15T11:08:15;36.95;;;15.20;;
65717;SDS011;52445;52.466;-1.016;2023-02-15T11:10:48;32.40;;;15.40;;
65717;SDS011;52445;52.466;-1.016;2023-02-15T11:13:18;33.90;;;15.20;;
65717;SDS011;52445;52.466;-1.016;2023-02-15T11:15:57;30.23;;;14.90;;
65717;SDS011;52445;52.466;-1.016;2023-02-15T11:23:43;36.65;;;18.88;;
65717;SDS011;52445;52.466;-1.016;2023-02-15T11:26:13;39.25;;;17.33;;
65717;SDS011;52445;52.466;-1.016;2023-02-15T11:28:47;35.95;;;16.80;;
65717;SDS011;52445;52.466;-1.016;2023-02-15T11:31:18;29.73;;;14.02;;
65717;SDS011;52445;52.466;-1.016;2023-02-15T11:33:51;28.45;;;13.45;;
65717;SDS011;52445;52.466;-1.016;2023-02-15T11:36:24;32.65;;;13.02;;
65717;SDS011;52445;52.466;-1.016;2023-02-15T11:38:56;31.20;;;13.88;;
65717;SDS011;52445;52.466;-1.016;2023-02-15T11:41:28;29.90;;;13.50;;
65717;SDS011;52445;52.466;-1.016;2023-02-15T11:43:59;30.05;;;13.55;;
65717;SDS011;52445;52.466;-1.016;2023-02-15T11:46:32;28.55;;;13.45;;
65717;SDS011;52445;52.466;-1.016;2023-02-15T11:48:59;31.92;;;14.65;;
65717;SDS011;52445;52.466;-1.016;2023-02-15T11:51:25;34.47;;;14.35;;
65717;SDS011;52445;52.466;-1.016;2023-02-15T11:53:54;30.88;;;15.00;;
65717;SDS011;52445;52.466;-1.016;2023-02-15T11:56:22;30.60;;;13.90;;
65717;SDS011;52445;52.466;-1.016;2023-02-15T12:04:17;34.50;;;14.63;;
65717;SDS011;52445;52.466;-1.016;2023-02-15T12:06:52;33.72;;;14.77;;
65717;SDS011;52445;52.466;-1.016;2023-02-15T12:12:21;28.17;;;14.63;;
65717;SDS011;52445;52.466;-1.016;2023-02-15T12:14:51;29.45;;;14.32;;
65717;SDS011;52445;52.466;-1.016;2023-02-15T12:17:21;30.63;;;15.80;;
65717;SDS011;52445;52.466;-1.016;2023-02-15T12:19:50;28.98;;;14.43;;
65717;SDS011;52445;52.466;-1.016;2023-02-15T12:24:59;28.77;;;12.25;;
65717;SDS011;52445;52.466;-1.016;2023-02-15T12:27:29;33.28;;;13.43;;
65717;SDS011;52445;52.466;-1.016;2023-02-15T12:29:59;28.33;;;12.05;;
65717;SDS011;52445;52.466;-1.016;2023-02-15T12:32:33;34.38;;;14.82;;
65717;SDS011;52445;52.466;-1.016;2023-02-15T12:35:07;31.55;;;14.05;;
65717;SDS011;52445;52.466;-1.016;2023-02-15T12:37:40;29.73;;;13.60;;
65717;SDS011;52445;52.466;-1.016;2023-02-15T12:40:21;30.73;;;12.90;;
65717;SDS011;52445;52.466;-1.016;2023-02-15T12:42:56;28.67;;;12.50;;
65717;SDS011;52445;52.466;-1.016;2023-02-15T12:48:17;29.48;;;13.45;;
65717;SDS011;52445;52.466;-1.016;2023-02-15T12:50:47;30.08;;;12.65;;
65717;SDS011;52445;52.466;-1.016;2023-02-15T12:53:29;27.20;;;11.48;;
65717;SDS011;52445;52.466;-1.016;2023-02-15T12:56:00;26.98;;;11.98;;
65717;SDS011;52445;52.466;-1.016;2023-02-15T12:58:29;21.98;;;9.63;;
65717;SDS011;52445;52.466;-1.016;2023-02-15T13:01:02;29.67;;;10.20;;
65717;SDS011;52445;52.466;-1.016;2023-02-15T13:03:39;21.33;;;11.55;;
65717;SDS011;52445;52.466;-1.016;2023-02-15T13:06:33;25.25;;;11.35;;
65717;SDS011;52445;52.466;-1.016;2023-02-15T13:09:07;22.75;;;9.07;;
65717;SDS011;52445;52.466;-1.016;2023-02-15T13:11:44;27.23;;;10.18;;
65717;SDS011;52445;52.466;-1.016;2023-02-15T13:14:20;23.10;;;9.93;;
65717;SDS011;52445;52.466;-1.016;2023-02-15T13:16:53;25.67;;;9.30;;
65717;SDS011;52445;52.466;-1.016;2023-02-15T13:22:06;21.10;;;8.07;;
65717;SDS011;52445;52.466;-1.016;2023-02-15T13:24:39;14.93;;;7.30;;
65717;SDS011;52445;52.466;-1.016;2023-02-15T13:27:12;18.27;;;7.90;;
65717;SDS011;52445;52.466;-1.016;2023-02-15T13:29:45;17.98;;;6.80;;
65717;SDS011;52445;52.466;-1.016;2023-02-15T13:32:22;16.65;;;6.18;;
65717;SDS011;52445;52.466;-1.016;2023-02-15T13:35:00;17.83;;;7.68;;
65717;SDS011;52445;52.466;-1.016;2023-02-15T13:40:43;18.00;;;8.05;;
65717;SDS011;52445;52.466;-1.016;2023-02-15T13:49:17;14.35;;;6.07;;
65717;SDS011;52445;52.466;-1.016;2023-02-15T14:01:01;20.90;;;6.57;;
65717;SDS011;52445;52.466;-1.016;2023-02-15T14:11:27;13.93;;;6.35;;
65717;SDS011;52445;52.466;-1.016;2023-02-15T14:14:15;17.75;;;8.20;;
65717;SDS011;52445;52.466;-1.016;2023-02-15T14:17:23;18.85;;;8.13;;
65717;SDS011;52445;52.466;-1.016;2023-02-15T14:19:59;18.65;;;8.27;;
65717;SDS011;52445;52.466;-1.016;2023-02-15T14:22:35;22.77;;;7.40;;
65717;SDS011;52445;52.466;-1.016;2023-02-15T14:30:54;17.92;;;7.07;;
65717;SDS011;52445;52.466;-1.016;2023-02-15T14:33:28;19.40;;;7.82;;
65717;SDS011;52445;52.466;-1.016;2023-02-15T14:36:01;14.20;;;6.65;;
65717;SDS011;52445;52.466;-1.016;2023-02-15T14:41:37;21.95;;;7.68;;
65717;SDS011;52445;52.466;-1.016;2023-02-15T14:46:55;16.73;;;7.22;;
65717;SDS011;52445;52.466;-1.016;2023-02-15T14:49:32;21.40;;;7.03;;
65717;SDS011;52445;52.466;-1.016;2023-02-15T15:02:29;22.38;;;9.10;;
65717;SDS011;52445;52.466;-1.016;2023-02-15T15:05:18;18.38;;;6.18;;
65717;SDS011;52445;52.466;-1.016;2023-02-15T15:07:54;15.40;;;7.60;;
65717;SDS011;52445;52.466;-1.016;2023-02-15T15:13:35;16.88;;;6.53;;
65717;SDS011;52445;52.466;-1.016;2023-02-15T15:16:23;22.67;;;7.68;;
65717;SDS011;52445;52.466;-1.016;2023-02-15T15:19:02;16.73;;;8.38;;
65717;SDS011;52445;52.466;-1.016;2023-02-15T15:50:04;14.85;;;6.45;;
65717;SDS011;52445;52.466;-1.016;2023-02-15T15:52:38;16.40;;;6.15;;
65717;SDS011;52445;52.466;-1.016;2023-02-15T15:55:15;16.98;;;5.60;;
65717;SDS011;52445;52.466;-1.016;2023-02-15T15:57:44;14.93;;;5.82;;
65717;SDS011;52445;52.466;-1.016;2023-02-15T16:03:16;13.98;;;6.15;;
65717;SDS011;52445;52.466;-1.016;2023-02-15T16:05:48;11.90;;;4.97;;
65717;SDS011;52445;52.466;-1.016;2023-02-15T16:08:38;16.98;;;6.30;;
65717;SDS011;52445;52.466;-1.016;2023-02-15T16:11:14;14.15;;;5.72;;
65717;SDS011;52445;52.466;-1.016;2023-02-15T16:13:47;14.52;;;5.47;;
65717;SDS011;52445;52.466;-1.016;2023-02-15T16:16:13;14.77;;;5.57;;
65717;SDS011;52445;52.466;-1.016;2023-02-15T16:18:47;18.00;;;5.78;;
65717;SDS011;52445;52.466;-1.016;2023-02-15T16:21:17;13.88;;;5.10;;
65717;SDS011;52445;52.466;-1.016;2023-02-15T16:23:54;10.48;;;4.90;;
65717;SDS011;52445;52.466;-1.016;2023-02-15T16:29:17;19.52;;;7.43;;
65717;SDS011;52445;52.466;-1.016;2023-02-15T16:32:00;18.45;;;5.57;;
65717;SDS011;52445;52.466;-1.016;2023-02-15T16:34:29;14.85;;;6.15;;
65717;SDS011;52445;52.466;-1.016;2023-02-15T16:39:49;13.07;;;5.60;;
65717;SDS011;52445;52.466;-1.016;2023-02-15T16:42:16;17.90;;;6.18;;
65717;SDS011;52445;52.466;-1.016;2023-02-15T16:44:45;15.93;;;6.07;;
65717;SDS011;52445;52.466;-1.016;2023-02-15T16:47:16;16.35;;;6.35;;
65717;SDS011;52445;52.466;-1.016;2023-02-15T16:49:47;18.60;;;6.95;;
65717;SDS011;52445;52.466;-1.016;2023-02-15T16:54:48;23.27;;;7.82;;
65717;SDS011;52445;52.466;-1.016;2023-02-15T16:57:20;18.73;;;7.40;;
65717;SDS011;52445;52.466;-1.016;2023-02-15T16:59:50;40.05;;;17.30;;
65717;SDS011;52445;52.466;-1.016;2023-02-15T17:02:20;29.83;;;13.98;;
65717;SDS011;52445;52.466;-1.016;2023-02-15T17:07:49;14.43;;;6.53;;
65717;SDS011;52445;52.466;-1.016;2023-02-15T17:10:37;15.25;;;6.50;;
65717;SDS011;52445;52.466;-1.016;2023-02-15T17:13:16;21.05;;;6.35;;
65717;SDS011;52445;52.466;-1.016;2023-02-15T17:15:46;13.55;;;6.03;;
65717;SDS011;52445;52.466;-1.016;2023-02-15T17:18:44;17.63;;;7.03;;
65717;SDS011;52445;52.466;-1.016;2023-02-15T17:21:16;22.73;;;7.68;;
65717;SDS011;52445;52.466;-1.016;2023-02-15T17:23:45;15.40;;;6.72;;
65717;SDS011;52445;52.466;-1.016;2023-02-15T17:26:16;18.00;;;7.57;;
65717;SDS011;52445;52.466;-1.016;2023-02-15T17:28:48;16.58;;;7.60;;
65717;SDS011;52445;52.466;-1.016;2023-02-15T17:31:17;18.15;;;8.00;;
65717;SDS011;52445;52.466;-1.016;2023-02-15T17:33:45;21.23;;;9.20;;
65717;SDS011;52445;52.466;-1.016;2023-02-15T17:36:17;21.52;;;9.05;;
65717;SDS011;52445;52.466;-1.016;2023-02-15T17:41:34;20.40;;;10.23;;
65717;SDS011;52445;52.466;-1.016;2023-02-15T17:44:03;27.05;;;10.70;;
65717;SDS011;52445;52.466;-1.016;2023-02-15T17:46:34;19.52;;;10.25;;
65717;SDS011;52445;52.466;-1.016;2023-02-15T17:49:03;30.65;;;13.15;;
65717;SDS011;52445;52.466;-1.016;2023-02-15T17:51:30;24.65;;;12.38;;
65717;SDS011;52445;52.466;-1.016;2023-02-15T17:53:58;26.75;;;11.35;;
65717;SDS011;52445;52.466;-1.016;2023-02-15T17:56:44;29.63;;;13.93;;
65717;SDS011;52445;52.466;-1.016;2023-02-15T17:59:11;20.67;;;9.48;;
65717;SDS011;52445;52.466;-1.016;2023-02-15T18:01:43;19.33;;;9.80;;
65717;SDS011;52445;52.466;-1.016;2023-02-15T18:04:32;21.40;;;11.82;;